createdAt,value
2022-12-13T00:01:21.024Z,18.35
2022-12-13T00:04:05.721Z,16.27
2022-12-13T00:06:33.136Z,15.50
2022-12-13T00:09:00.349Z,16.65
2022-12-13T00:11:27.848Z,16.12
2022-12-13T00:14:38.142Z,16.67
2022-12-13T00:17:25.041Z,17.40
2022-12-13T00:19:51.586Z,16.80
2022-12-13T00:22:18.123Z,17.25
2022-12-13T00:24:46.220Z,15.77
2022-12-13T00:27:12.915Z,15.85
2022-12-13T00:29:39.542Z,17.52
2022-12-13T00:32:06.166Z,16.33
2022-12-13T00:34:32.740Z,16.65
2022-12-13T00:36:59.603Z,18.52
2022-12-13T00:39:26.679Z,17.33
2022-12-13T00:41:53.181Z,17.30
2022-12-13T00:44:20.185Z,17.25
2022-12-13T00:46:47.199Z,18.35
2022-12-13T00:49:29.216Z,17.23
2022-12-13T00:51:55.799Z,14.90
2022-12-13T00:54:22.484Z,17.90
2022-12-13T00:56:51.219Z,16.75
2022-12-13T01:02:35.299Z,16.35
2022-12-13T01:05:01.877Z,16.08
2022-12-13T01:07:28.437Z,17.20
2022-12-13T01:09:57.489Z,17.70
2022-12-13T01:12:24.384Z,16.60
2022-12-13T01:14:55.891Z,17.37
2022-12-13T01:17:38.231Z,16.08
2022-12-13T01:20:06.300Z,18.10
2022-12-13T01:22:32.873Z,16.05
2022-12-13T01:24:59.442Z,18.95
2022-12-13T01:31:46.783Z,19.55
2022-12-13T01:34:15.442Z,16.42
2022-12-13T01:36:44.675Z,17.15
2022-12-13T01:39:15.037Z,17.52
2022-12-13T01:41:43.431Z,17.02
2022-12-13T01:44:47.602Z,16.60
2022-12-13T01:52:38.763Z,18.15
2022-12-13T01:55:07.690Z,18.85
2022-12-13T01:57:40.767Z,18.77
2022-12-13T02:00:11.255Z,16.98
2022-12-13T02:06:44.175Z,15.73
2022-12-13T02:09:11.414Z,16.15
2022-12-13T02:14:13.282Z,17.20
2022-12-13T02:16:57.140Z,18.92
2022-12-13T02:19:48.624Z,16.27
2022-12-13T02:22:18.199Z,17.65
2022-12-13T02:25:28.612Z,16.85
2022-12-13T02:28:30.453Z,17.50
2022-12-13T02:31:23.207Z,17.35
2022-12-13T02:33:49.945Z,17.02
2022-12-13T02:36:57.370Z,19.73
2022-12-13T02:39:32.292Z,17.85
2022-12-13T02:42:06.094Z,20.10
2022-12-13T02:44:42.166Z,17.85
2022-12-13T02:47:51.642Z,20.10
2022-12-13T02:50:53.376Z,19.92
2022-12-13T02:53:29.822Z,17.70
2022-12-13T02:56:00.305Z,18.00
2022-12-13T02:58:34.605Z,18.83
2022-12-13T03:01:28.044Z,18.10
2022-12-13T03:04:10.353Z,19.08
2022-12-13T03:06:58.680Z,21.67
2022-12-13T03:09:58.745Z,16.52
2022-12-13T03:12:55.282Z,18.87
2022-12-13T03:15:29.587Z,18.35
2022-12-13T03:18:01.931Z,20.23
2022-12-13T03:23:20.478Z,17.25
2022-12-13T03:25:51.143Z,18.55
2022-12-13T03:28:18.116Z,19.75
2022-12-13T03:35:34.117Z,20.35
2022-12-13T03:38:01.961Z,19.10
2022-12-13T03:40:30.236Z,19.10
2022-12-13T03:42:57.108Z,19.23
2022-12-13T03:45:24.061Z,20.42
2022-12-13T03:52:55.573Z,21.30
2022-12-13T03:53:37.444Z,31.27
2022-12-13T03:56:06.362Z,26.33
2022-12-13T03:59:05.982Z,23.70
2022-12-13T04:01:37.471Z,18.00
2022-12-13T04:21:20.643Z,20.67
2022-12-13T04:23:47.592Z,23.55
2022-12-13T04:26:32.916Z,21.55
2022-12-13T04:28:59.467Z,19.95
2022-12-13T04:31:26.028Z,20.33
2022-12-13T04:33:52.609Z,17.58
2022-12-13T04:40:27.490Z,18.42
2022-12-13T04:42:54.726Z,21.92
2022-12-13T04:45:22.765Z,19.25
2022-12-13T04:47:49.947Z,19.23
2022-12-13T04:50:17.054Z,18.55
2022-12-13T04:52:44.317Z,23.30
2022-12-13T04:57:52.199Z,22.15
2022-12-13T05:00:18.919Z,19.23
2022-12-13T05:02:45.533Z,19.87
2022-12-13T05:05:12.373Z,20.30
2022-12-13T05:07:42.612Z,20.42
2022-12-13T05:14:37.158Z,21.10
2022-12-13T08:00:28.939Z,20.12
2022-12-13T08:09:01.420Z,18.60
2022-12-13T08:11:28.183Z,19.25
2022-12-13T08:13:55.054Z,20.88
2022-12-13T08:17:11.809Z,24.15
2022-12-13T08:52:15.328Z,18.30
2022-12-13T08:54:41.902Z,18.23
2022-12-13T08:57:11.513Z,18.50
2022-12-13T08:59:38.090Z,17.70
2022-12-13T09:02:05.462Z,21.12
2022-12-13T09:15:22.308Z,13.70
2022-12-13T09:17:52.304Z,15.32
2022-12-13T09:23:01.303Z,16.77
2022-12-13T09:25:36.550Z,15.88
2022-12-13T09:28:06.317Z,15.60
2022-12-13T09:31:52.627Z,13.45
2022-12-13T09:34:46.041Z,14.77
2022-12-13T09:37:13.600Z,12.90
2022-12-13T09:39:55.517Z,12.55
2022-12-13T09:42:30.913Z,14.20
2022-12-13T09:45:04.285Z,12.88
2022-12-13T09:50:08.267Z,10.82
2022-12-13T09:52:44.205Z,11.70
2022-12-13T09:55:20.216Z,10.40
2022-12-13T09:57:47.786Z,11.70
2022-12-13T10:00:20.500Z,11.25
2022-12-13T10:02:53.580Z,10.20
2022-12-13T10:22:05.057Z,9.85
2022-12-13T10:24:53.844Z,9.68
2022-12-13T10:27:28.857Z,9.82
2022-12-13T10:34:23.356Z,7.57
2022-12-13T15:32:23.162Z,19.25
2022-12-13T15:34:51.529Z,18.95
2022-12-13T15:37:33.134Z,18.80
2022-12-13T15:40:06.756Z,18.48
2022-12-13T15:42:40.048Z,21.08
2022-12-13T15:45:20.040Z,20.80
2022-12-13T15:55:37.048Z,38.30
2022-12-13T15:58:03.940Z,57.20
2022-12-13T16:00:34.684Z,62.78
2022-12-13T16:03:16.161Z,58.20
2022-12-13T16:05:49.101Z,51.83
2022-12-13T16:08:38.137Z,43.15
2022-12-13T16:11:06.862Z,48.97
2022-12-13T16:13:37.101Z,48.30
2022-12-13T16:16:10.135Z,76.53
2022-12-13T16:40:30.019Z,55.67
2022-12-13T16:43:03.271Z,66.50
2022-12-13T16:45:42.743Z,66.35
2022-12-13T16:48:15.588Z,78.80
2022-12-13T16:50:44.393Z,68.57
2022-12-13T16:53:18.802Z,64.15
2022-12-13T16:55:46.171Z,51.42
2022-12-13T16:58:26.009Z,47.65
2022-12-13T17:00:52.859Z,41.67
2022-12-13T17:03:26.036Z,43.42
2022-12-13T17:05:58.933Z,37.70
2022-12-13T17:08:25.775Z,40.92
2022-12-13T17:10:58.227Z,38.33
2022-12-13T17:13:26.036Z,41.50
2022-12-13T17:15:59.479Z,38.50
2022-12-13T17:18:26.557Z,43.90
2022-12-13T17:20:58.421Z,46.13
2022-12-13T17:23:27.226Z,45.28
2022-12-13T17:25:58.014Z,44.45
2022-12-13T17:28:25.671Z,44.35
2022-12-13T17:30:54.841Z,51.03
2022-12-13T17:33:22.225Z,48.28
2022-12-13T17:35:48.921Z,44.72
2022-12-13T17:38:15.438Z,44.72
2022-12-13T17:40:42.171Z,48.78
2022-12-13T17:43:27.210Z,42.62
2022-12-13T17:46:06.121Z,43.53
2022-12-13T17:48:40.683Z,45.00
2022-12-13T17:51:09.281Z,48.00
2022-12-13T17:53:36.880Z,49.85
2022-12-13T17:56:06.570Z,48.40
2022-12-13T17:58:34.237Z,49.90
2022-12-13T18:01:12.219Z,56.92
2022-12-13T18:03:38.910Z,50.75
2022-12-13T18:06:07.203Z,50.03
2022-12-13T18:08:38.915Z,56.15
2022-12-13T18:13:54.894Z,52.40
2022-12-13T18:16:23.836Z,56.15
2022-12-13T18:18:54.720Z,49.33
2022-12-13T18:21:22.881Z,46.28
2022-12-13T18:26:24.921Z,46.97
2022-12-13T18:28:52.409Z,50.70
2022-12-13T18:31:24.102Z,46.90
2022-12-13T18:33:52.533Z,49.80
2022-12-13T18:36:21.688Z,59.80
2022-12-13T18:38:48.719Z,73.55
2022-12-13T18:41:18.393Z,62.65
2022-12-13T18:43:45.919Z,55.33
2022-12-13T18:46:14.075Z,57.20
2022-12-13T18:48:44.111Z,53.55
2022-12-13T18:51:10.865Z,63.42
2022-12-13T18:53:38.448Z,75.25
2022-12-13T18:56:11.671Z,109.75
2022-12-13T18:58:43.076Z,225.95
2022-12-13T19:01:12.819Z,285.67
2022-12-13T19:03:40.160Z,292.55
2022-12-13T19:06:08.072Z,245.50
2022-12-13T19:08:36.542Z,232.52
2022-12-13T19:11:06.538Z,202.80
2022-12-13T19:13:33.162Z,188.10
2022-12-13T19:16:08.444Z,151.87
2022-12-13T19:18:37.026Z,125.97
2022-12-13T19:21:07.740Z,120.20
2022-12-13T19:23:35.465Z,114.53
2022-12-13T19:26:06.728Z,112.75
2022-12-13T19:28:34.324Z,105.07
2022-12-13T19:31:11.323Z,96.07
2022-12-13T19:33:37.968Z,119.87
2022-12-13T19:36:05.967Z,122.40
2022-12-13T19:38:32.871Z,109.03
2022-12-13T19:41:01.184Z,106.00
2022-12-13T19:43:28.487Z,107.65
2022-12-13T19:45:55.271Z,119.35
2022-12-13T19:56:27.354Z,135.93
2022-12-13T19:58:54.335Z,142.60
2022-12-13T20:01:21.073Z,130.98
2022-12-13T20:03:48.079Z,132.23
2022-12-13T20:06:20.095Z,131.10
2022-12-13T20:08:47.034Z,116.18
2022-12-13T20:11:17.180Z,115.30
2022-12-13T20:13:43.811Z,108.90
2022-12-13T20:16:17.312Z,94.78
2022-12-13T20:18:44.036Z,89.00
2022-12-13T20:21:13.054Z,92.82
2022-12-13T20:23:42.247Z,96.37
2022-12-13T20:26:19.398Z,94.30
2022-12-13T20:28:46.361Z,103.70
2022-12-13T20:31:16.522Z,109.97
2022-12-13T20:33:43.098Z,112.80
2022-12-13T20:36:26.359Z,110.63
2022-12-13T20:38:56.304Z,94.75
2022-12-13T20:41:42.832Z,106.57
2022-12-13T20:44:12.264Z,98.78
2022-12-13T20:46:39.703Z,106.10
2022-12-13T20:49:08.765Z,87.47
2022-12-13T20:51:37.661Z,88.40
2022-12-13T20:54:04.800Z,89.28
2022-12-13T20:56:35.269Z,83.85
2022-12-13T20:59:03.531Z,84.35
2022-12-13T21:01:32.440Z,89.68
2022-12-13T21:04:01.103Z,106.37
2022-12-13T21:06:28.799Z,116.10
2022-12-13T21:08:59.904Z,111.68
2022-12-13T21:11:38.439Z,94.20
2022-12-13T21:14:11.139Z,82.18
2022-12-13T21:16:41.936Z,72.78
2022-12-13T21:30:03.765Z,53.25
2022-12-13T21:32:30.413Z,56.70
2022-12-13T21:38:44.263Z,57.90
2022-12-13T21:41:32.667Z,53.30
2022-12-13T21:44:01.885Z,52.72
2022-12-13T21:46:47.908Z,52.53
2022-12-13T21:49:16.467Z,58.70
2022-12-13T21:57:12.614Z,61.95
2022-12-13T21:59:39.197Z,61.50
2022-12-13T22:02:18.169Z,62.03
2022-12-13T22:04:48.162Z,56.78
2022-12-13T22:29:39.606Z,54.92
2022-12-13T22:32:06.587Z,53.87
2022-12-13T22:34:33.282Z,62.08
2022-12-13T22:37:00.651Z,69.60
2022-12-13T22:39:27.204Z,68.00
2022-12-13T22:41:53.749Z,66.50
2022-12-13T22:44:23.173Z,82.37
2022-12-13T22:46:49.732Z,58.50
2022-12-13T22:49:16.375Z,66.20
2022-12-13T22:51:43.271Z,58.05
2022-12-13T22:54:10.094Z,63.03
2022-12-13T22:56:36.728Z,62.75
2022-12-13T22:59:21.550Z,55.67
2022-12-13T23:01:48.500Z,58.08
2022-12-13T23:04:15.506Z,64.07
2022-12-13T23:06:42.432Z,52.72
2022-12-13T23:51:07.360Z,52.38
2022-12-13T23:53:34.521Z,55.58
2022-12-13T23:56:01.408Z,50.08
